首页
METAR-TAF:

METAR-TAF

机场 :

梅茨南希洛林, 法国

纬度: 48-59N, 经度: 006-15E, 海拔: 264米

当前天气观测

该预报发布于30分钟前的14:00 UTC
风速10节,风向南转西南,在东南西转西南之间变化
温度 34°C
湿度 25%
气压 1019 hPa
能见度10公里或以上
1500米以下无云,无积雨云

METAR: LFJL 251400Z AUTO 20010KT 140V250 CAVOK 34/11 Q1019 NOSIG

时间: 16:30 (14:30 UTC)

预报

该预报发布于3小时和30分钟前的11:00 UTC
预报有效从25日的 12点(UTC)到 26日的 12点(UTC)
风速6节,风向南转南东
能见度10公里或以上
1500米以下无云,无积雨云
短暂存在
从 25日的 12点(UTC)到 25日的 16点(UTC)
风速12节,风向南转西南,有时为22节阵风

TAF: LFJL 251100Z 2512/2612 16006KT CAVOK TEMPO 2512/2516 20012G22KT

超过4000个机场的气象观测和天气预报(METAR&TAF报告)。

可查询的气象台以黄色和红色小点在地图上表示。

将鼠标移到小点上方,可查看气象台名称。

然后点击查看天气观测和预报。

如需切换地图:点击带黑十字的绿色按钮放大地图;点击带横线的绿色按钮缩小地图;或者点击绿色箭头查看邻近地区的地图。


METAR-TAF: